createdAt,value
2018-08-18T00:00:19.292Z,4.90
2018-08-18T00:02:47.855Z,5.23
2018-08-18T00:05:17.009Z,4.60
2018-08-18T00:07:46.243Z,4.93
2018-08-18T00:10:16.862Z,5.13
2018-08-18T00:12:45.360Z,5.03
2018-08-18T00:15:13.934Z,4.70
2018-08-18T00:17:42.447Z,5.07
2018-08-18T00:20:16.840Z,5.00
2018-08-18T00:22:45.555Z,4.90
2018-08-18T00:25:14.080Z,4.80
2018-08-18T00:27:42.588Z,5.03
2018-08-18T00:30:16.667Z,4.90
2018-08-18T00:32:45.326Z,5.50
2018-08-18T00:35:13.880Z,5.30
2018-08-18T00:37:42.962Z,5.73
2018-08-18T00:40:12.096Z,5.97
2018-08-18T00:42:40.851Z,6.20
2018-08-18T00:45:11.011Z,6.37
2018-08-18T00:47:40.433Z,6.37
2018-08-18T00:50:09.875Z,6.47
2018-08-18T00:52:38.778Z,6.77
2018-08-18T00:55:07.386Z,7.40
2018-08-18T00:57:35.864Z,7.30
2018-08-18T01:00:05.737Z,7.17
2018-08-18T01:02:34.202Z,7.10
2018-08-18T01:05:02.998Z,7.60
2018-08-18T01:07:32.557Z,7.77
2018-08-18T01:10:01.432Z,7.63
2018-08-18T01:12:30.041Z,8.73
2018-08-18T01:14:58.653Z,7.93
2018-08-18T01:17:27.189Z,8.43
2018-08-18T01:19:58.019Z,7.03
2018-08-18T01:22:26.502Z,8.30
2018-08-18T01:24:55.346Z,8.17
2018-08-18T01:27:23.880Z,7.50
2018-08-18T01:30:06.758Z,7.83
2018-08-18T01:32:35.297Z,7.87
2018-08-18T01:35:03.765Z,7.70
2018-08-18T01:37:33.457Z,7.37
2018-08-18T01:40:02.040Z,8.60
2018-08-18T01:42:32.409Z,7.37
2018-08-18T01:45:00.883Z,7.50
2018-08-18T01:47:29.525Z,7.93
2018-08-18T01:50:03.997Z,8.27
2018-08-18T01:52:33.257Z,7.63
2018-08-18T01:55:01.740Z,8.50
2018-08-18T01:57:30.213Z,8.23
2018-08-18T01:59:59.000Z,7.47
2018-08-18T02:02:28.467Z,8.00
2018-08-18T02:05:05.014Z,8.47
2018-08-18T02:07:34.261Z,8.83
2018-08-18T02:10:02.800Z,8.57
2018-08-18T02:12:32.230Z,8.50
2018-08-18T02:15:01.130Z,9.37
2018-08-18T02:17:32.168Z,8.50
2018-08-18T02:20:00.884Z,8.67
2018-08-18T02:22:30.045Z,8.13
2018-08-18T02:24:58.665Z,9.07
2018-08-18T02:27:27.376Z,9.83
2018-08-18T02:30:07.126Z,9.40
2018-08-18T02:32:37.538Z,9.00
2018-08-18T02:35:06.648Z,9.37
2018-08-18T02:37:35.287Z,9.37
2018-08-18T02:40:05.212Z,8.80
2018-08-18T02:42:34.473Z,8.93
2018-08-18T02:45:03.089Z,8.90
2018-08-18T02:47:31.701Z,9.37
2018-08-18T02:50:01.489Z,9.13
2018-08-18T02:52:32.899Z,9.13
2018-08-18T02:55:02.635Z,10.50
2018-08-18T02:57:33.489Z,9.57
2018-08-18T03:00:04.857Z,10.13
2018-08-18T03:02:33.548Z,9.40
2018-08-18T03:05:02.209Z,10.60
2018-08-18T03:07:32.059Z,9.90
2018-08-18T03:10:01.399Z,10.23
2018-08-18T03:12:39.162Z,10.50
2018-08-18T03:15:08.009Z,9.67
2018-08-18T03:17:36.574Z,9.73
2018-08-18T03:20:05.616Z,10.30
2018-08-18T03:22:40.140Z,9.90
2018-08-18T03:25:08.848Z,9.83
2018-08-18T03:27:37.357Z,10.00
2018-08-18T03:30:05.892Z,9.60
2018-08-18T03:32:34.394Z,9.80
2018-08-18T03:35:02.909Z,10.67
2018-08-18T03:37:31.992Z,10.57
2018-08-18T03:40:00.533Z,10.20
2018-08-18T03:42:34.332Z,10.00
2018-08-18T03:45:05.066Z,10.40
2018-08-18T03:47:33.563Z,10.73
2018-08-18T03:50:02.052Z,11.53
2018-08-18T03:52:30.705Z,11.00
2018-08-18T03:54:59.235Z,10.97
2018-08-18T03:57:40.864Z,10.23
2018-08-18T04:00:09.349Z,10.97
2018-08-18T04:02:38.141Z,9.60
2018-08-18T04:05:09.076Z,10.60
2018-08-18T04:07:43.192Z,11.50
2018-08-18T04:10:11.695Z,11.37
2018-08-18T04:12:40.225Z,10.20
2018-08-18T04:15:08.841Z,11.03
2018-08-18T04:17:37.498Z,11.70
2018-08-18T04:20:06.520Z,10.97
2018-08-18T04:22:35.126Z,11.37
2018-08-18T04:25:04.363Z,11.80
2018-08-18T04:27:41.924Z,11.93
2018-08-18T04:30:14.599Z,11.10
2018-08-18T04:33:00.347Z,11.23
2018-08-18T04:35:29.982Z,11.67
2018-08-18T04:37:59.566Z,12.00
2018-08-18T04:40:28.079Z,12.33
2018-08-18T04:42:57.397Z,11.80
2018-08-18T04:45:26.023Z,13.17
2018-08-18T04:47:54.795Z,11.93
2018-08-18T04:50:23.428Z,11.80
2018-08-18T04:52:52.325Z,12.20
2018-08-18T04:55:20.888Z,12.87
2018-08-18T04:57:49.432Z,12.13
2018-08-18T05:00:17.957Z,11.57
2018-08-18T05:02:52.550Z,11.13
2018-08-18T05:05:24.767Z,11.20
2018-08-18T05:07:53.336Z,11.73
2018-08-18T05:10:22.094Z,12.03
2018-08-18T05:12:50.589Z,11.23
2018-08-18T05:15:19.700Z,12.67
2018-08-18T05:17:49.602Z,11.30
2018-08-18T05:20:20.468Z,11.00
2018-08-18T05:22:49.057Z,11.33
2018-08-18T05:25:18.893Z,11.33
2018-08-18T05:27:47.553Z,11.33
2018-08-18T05:30:16.701Z,11.03
2018-08-18T05:32:46.638Z,10.87
2018-08-18T05:35:15.209Z,10.80
2018-08-18T05:37:43.663Z,10.10
2018-08-18T05:40:12.144Z,10.90
2018-08-18T05:42:40.670Z,11.50
2018-08-18T05:45:21.994Z,11.00
2018-08-18T05:47:51.608Z,11.17
2018-08-18T05:50:20.834Z,11.27
2018-08-18T05:52:50.521Z,10.53
2018-08-18T05:55:20.106Z,10.50
2018-08-18T05:57:49.915Z,10.90
2018-08-18T06:00:20.031Z,10.00
2018-08-18T06:02:54.009Z,11.30
2018-08-18T06:05:22.626Z,11.13
2018-08-18T06:07:51.355Z,11.17
2018-08-18T06:10:19.829Z,10.33
2018-08-18T06:12:48.407Z,10.07
2018-08-18T06:15:17.366Z,10.47
2018-08-18T06:17:45.995Z,10.20
2018-08-18T06:20:14.542Z,9.83
2018-08-18T06:22:43.137Z,10.27
2018-08-18T06:25:11.759Z,11.37
2018-08-18T06:27:41.584Z,10.37
2018-08-18T06:30:10.210Z,10.97
2018-08-18T06:32:38.785Z,9.83
2018-08-18T06:35:07.979Z,10.27
2018-08-18T06:37:36.464Z,10.07
2018-08-18T06:40:05.107Z,10.93
2018-08-18T06:42:36.763Z,9.93
2018-08-18T06:45:12.591Z,10.67
2018-08-18T06:47:41.405Z,10.83
2018-08-18T06:50:12.462Z,10.13
2018-08-18T06:52:41.365Z,10.10
2018-08-18T06:55:14.995Z,10.50
2018-08-18T06:57:47.868Z,9.10
2018-08-18T07:00:18.895Z,9.17
2018-08-18T07:02:48.550Z,9.73
2018-08-18T07:05:18.462Z,10.20
2018-08-18T07:07:48.225Z,9.87
2018-08-18T07:10:37.093Z,10.27
2018-08-18T07:13:10.080Z,9.87
2018-08-18T07:15:40.622Z,9.43
2018-08-18T07:18:10.467Z,9.10
2018-08-18T07:20:39.373Z,9.30
2018-08-18T07:23:08.161Z,8.20
2018-08-18T07:25:43.445Z,8.60
2018-08-18T07:28:12.230Z,8.67
2018-08-18T07:30:40.737Z,8.10
2018-08-18T07:33:09.205Z,8.33
2018-08-18T07:35:38.285Z,8.40
2018-08-18T07:38:06.811Z,7.90
2018-08-18T07:40:43.115Z,8.57
2018-08-18T07:43:13.945Z,7.80
2018-08-18T07:45:42.638Z,7.63
2018-08-18T07:48:11.346Z,7.83
2018-08-18T07:50:39.914Z,7.97
2018-08-18T07:53:09.354Z,7.30
2018-08-18T07:55:37.854Z,7.30
2018-08-18T07:58:08.582Z,7.63
2018-08-18T08:00:38.006Z,12.67
2018-08-18T08:03:07.822Z,10.03
2018-08-18T08:05:36.310Z,5.40
2018-08-18T08:08:05.043Z,4.77
2018-08-18T08:10:33.586Z,4.60
2018-08-18T08:13:02.175Z,4.20
2018-08-18T08:15:30.657Z,4.70
2018-08-18T08:17:59.190Z,3.77
2018-08-18T08:20:28.389Z,3.63
2018-08-18T08:22:57.485Z,3.43
2018-08-18T08:25:25.861Z,3.53
2018-08-18T08:27:55.053Z,3.70
2018-08-18T08:30:24.988Z,3.87
2018-08-18T08:32:53.588Z,3.10
2018-08-18T08:35:22.554Z,3.57
2018-08-18T08:37:53.302Z,3.70
2018-08-18T08:40:23.389Z,3.53
2018-08-18T08:42:52.079Z,3.87
2018-08-18T08:45:22.895Z,4.27
2018-08-18T08:47:51.728Z,3.50
2018-08-18T08:50:23.918Z,3.67
2018-08-18T08:52:55.424Z,4.03
2018-08-18T08:55:25.534Z,3.73
2018-08-18T08:57:58.038Z,3.57
2018-08-18T09:00:26.713Z,3.73
2018-08-18T09:02:55.367Z,3.67
2018-08-18T09:05:24.055Z,4.67
2018-08-18T09:07:52.747Z,3.60
2018-08-18T09:10:21.970Z,4.07
2018-08-18T09:12:50.517Z,4.40
2018-08-18T09:15:19.141Z,4.17
2018-08-18T09:17:47.804Z,3.93
2018-08-18T09:20:19.301Z,3.57
2018-08-18T09:22:54.303Z,3.97
2018-08-18T09:25:23.290Z,3.67
2018-08-18T09:28:08.435Z,3.67
2018-08-18T09:30:37.120Z,3.40
2018-08-18T09:33:06.898Z,3.30
2018-08-18T09:35:53.419Z,3.27
2018-08-18T09:38:22.243Z,3.60
2018-08-18T09:40:51.099Z,3.70
2018-08-18T09:43:25.302Z,3.20
2018-08-18T09:45:55.563Z,4.73
2018-08-18T09:48:25.349Z,3.73
2018-08-18T09:50:55.320Z,4.03
2018-08-18T09:53:24.319Z,3.40
2018-08-18T09:55:54.396Z,3.93
2018-08-18T09:58:22.985Z,3.67
2018-08-18T10:00:51.903Z,3.97
2018-08-18T10:03:22.761Z,4.00
2018-08-18T10:05:51.273Z,3.80
2018-08-18T10:08:19.753Z,4.00
2018-08-18T10:10:48.384Z,3.63
2018-08-18T10:13:16.984Z,3.13
2018-08-18T10:15:45.518Z,3.37
2018-08-18T10:18:14.104Z,3.60
2018-08-18T10:20:49.369Z,3.07
2018-08-18T10:23:17.924Z,4.20
2018-08-18T10:25:46.819Z,3.20
2018-08-18T10:28:15.758Z,3.83
2018-08-18T10:30:45.134Z,3.70
2018-08-18T10:33:13.698Z,3.87
2018-08-18T10:35:43.662Z,3.80
2018-08-18T10:38:12.291Z,3.63
2018-08-18T10:40:40.836Z,3.57
2018-08-18T10:43:09.343Z,3.63
2018-08-18T10:45:38.860Z,3.63
2018-08-18T10:48:07.696Z,3.87
2018-08-18T10:51:46.098Z,3.23
2018-08-18T10:54:14.502Z,4.10
2018-08-18T10:56:43.152Z,3.40
2018-08-18T10:59:18.618Z,3.50
2018-08-18T11:02:06.685Z,3.80
2018-08-18T11:04:36.500Z,3.30
2018-08-18T11:07:05.804Z,3.40
2018-08-18T11:09:34.469Z,3.70
2018-08-18T11:12:03.669Z,3.07
2018-08-18T11:14:32.135Z,3.10
2018-08-18T11:17:00.657Z,3.30
2018-08-18T11:19:29.122Z,3.00
2018-08-18T11:22:08.845Z,3.67
2018-08-18T11:24:37.397Z,3.17
2018-08-18T11:27:05.853Z,3.07
2018-08-18T11:29:34.359Z,2.97
2018-08-18T11:32:02.937Z,3.13
2018-08-18T11:34:31.417Z,3.40
2018-08-18T11:37:04.067Z,3.20
2018-08-18T11:39:32.667Z,4.00
2018-08-18T11:42:01.241Z,3.50
2018-08-18T11:44:29.750Z,4.00
2018-08-18T11:47:08.341Z,3.80
2018-08-18T11:49:37.005Z,3.67
2018-08-18T11:52:05.853Z,3.80
2018-08-18T11:54:34.461Z,3.80
2018-08-18T11:57:03.076Z,3.47
2018-08-18T11:59:31.636Z,3.20
2018-08-18T12:02:00.148Z,3.47
2018-08-18T12:04:28.595Z,3.40
2018-08-18T12:06:58.354Z,3.30
2018-08-18T12:09:27.949Z,3.73
2018-08-18T12:11:56.592Z,3.57
2018-08-18T12:14:25.184Z,3.27
2018-08-18T12:16:53.768Z,3.93
2018-08-18T12:19:22.310Z,3.33
2018-08-18T12:21:50.883Z,3.43
2018-08-18T12:24:20.660Z,3.47
2018-08-18T12:27:00.381Z,4.00
2018-08-18T12:29:30.128Z,3.53
2018-08-18T12:31:58.981Z,4.40
2018-08-18T12:34:27.641Z,3.73
2018-08-18T12:36:56.278Z,3.87
2018-08-18T12:39:24.912Z,4.53
2018-08-18T12:41:53.502Z,4.87
2018-08-18T12:44:26.237Z,4.50
2018-08-18T12:46:54.880Z,4.67
2018-08-18T12:49:23.495Z,3.90
2018-08-18T12:51:52.115Z,3.87
2018-08-18T12:54:20.551Z,3.90
2018-08-18T12:56:49.020Z,3.80
2018-08-18T12:59:17.518Z,4.03
2018-08-18T13:01:47.284Z,4.37
2018-08-18T13:04:17.137Z,3.50
2018-08-18T13:06:47.720Z,3.93
2018-08-18T13:09:17.760Z,4.17
2018-08-18T13:11:48.483Z,3.77
2018-08-18T13:14:19.913Z,3.87
2018-08-18T13:16:48.377Z,4.03
2018-08-18T13:19:20.633Z,3.90
2018-08-18T13:21:52.445Z,3.50
2018-08-18T13:24:24.052Z,3.47
2018-08-18T13:26:52.773Z,3.20
2018-08-18T13:29:22.351Z,3.23
2018-08-18T13:31:50.885Z,3.40
2018-08-18T13:34:20.323Z,3.73
2018-08-18T13:36:48.903Z,3.70
2018-08-18T13:39:19.747Z,3.10
2018-08-18T13:41:49.283Z,2.80
2018-08-18T13:44:26.481Z,3.20
2018-08-18T13:46:56.338Z,3.17
2018-08-18T13:49:28.657Z,3.17
2018-08-18T13:51:59.334Z,3.20
2018-08-18T13:54:29.151Z,3.60
2018-08-18T13:56:58.431Z,3.27
2018-08-18T13:59:44.713Z,3.23
2018-08-18T14:02:15.570Z,3.23
2018-08-18T14:04:49.020Z,3.60
2018-08-18T14:07:20.212Z,3.50
2018-08-18T14:09:52.694Z,3.40
2018-08-18T14:12:21.497Z,3.23
2018-08-18T14:14:51.252Z,3.65
2018-08-18T14:17:21.955Z,3.57
2018-08-18T14:19:51.502Z,3.17
2018-08-18T14:22:21.818Z,2.95
2018-08-18T14:24:51.556Z,3.20
2018-08-18T14:27:23.191Z,3.13
2018-08-18T14:29:51.904Z,2.83
2018-08-18T14:32:26.086Z,3.10
2018-08-18T14:34:59.969Z,3.20
2018-08-18T14:37:28.784Z,2.97
2018-08-18T14:39:57.472Z,3.27
2018-08-18T14:42:26.192Z,3.30
2018-08-18T14:44:59.166Z,3.43
2018-08-18T14:47:30.555Z,3.43
2018-08-18T14:50:22.593Z,3.63
2018-08-18T14:52:51.273Z,3.00
2018-08-18T14:55:22.148Z,3.00
2018-08-18T14:58:04.478Z,3.03
2018-08-18T15:00:33.055Z,2.83
2018-08-18T15:03:07.583Z,3.13
2018-08-18T15:05:36.149Z,2.93
2018-08-18T15:08:04.801Z,3.43
2018-08-18T15:10:40.469Z,3.37
2018-08-18T15:13:10.228Z,3.63
2018-08-18T15:15:39.191Z,3.03
2018-08-18T15:18:10.672Z,2.90
2018-08-18T15:20:40.648Z,2.90
2018-08-18T15:23:10.642Z,3.37
2018-08-18T15:25:40.574Z,3.20
2018-08-18T15:28:12.590Z,2.93
2018-08-18T15:30:43.502Z,2.97
2018-08-18T15:33:15.396Z,3.20
2018-08-18T15:35:44.549Z,2.73
2018-08-18T15:38:13.481Z,2.80
2018-08-18T15:40:43.165Z,2.67
2018-08-18T15:43:11.713Z,2.87
2018-08-18T15:45:55.611Z,2.80
2018-08-18T15:48:24.668Z,2.20
2018-08-18T15:50:53.974Z,2.50
2018-08-18T15:53:42.967Z,2.43
2018-08-18T15:56:12.678Z,2.33
2018-08-18T15:58:41.336Z,2.30
2018-08-18T16:01:10.026Z,2.30
2018-08-18T16:03:39.751Z,2.17
2018-08-18T16:06:09.620Z,2.10
2018-08-18T16:08:46.319Z,2.10
2018-08-18T16:11:15.553Z,2.00
2018-08-18T16:13:44.824Z,1.60
2018-08-18T16:16:13.770Z,1.73
2018-08-18T16:18:42.344Z,1.70
2018-08-18T16:21:16.356Z,1.60
2018-08-18T16:23:45.227Z,2.00
2018-08-18T16:26:14.136Z,1.80
2018-08-18T16:28:43.394Z,1.60
2018-08-18T16:31:12.643Z,2.40
2018-08-18T16:33:42.203Z,1.70
2018-08-18T16:36:11.096Z,1.80
2018-08-18T16:38:40.226Z,1.93
2018-08-18T16:41:15.437Z,1.80
2018-08-18T16:43:43.941Z,1.70
2018-08-18T16:46:29.810Z,2.03
2018-08-18T16:48:58.353Z,2.00
2018-08-18T16:51:28.057Z,1.60
2018-08-18T16:54:02.558Z,1.83
2018-08-18T16:56:35.702Z,1.80
2018-08-18T16:59:04.847Z,2.67
2018-08-18T17:01:34.966Z,2.00
2018-08-18T17:04:03.611Z,2.57
2018-08-18T17:06:32.230Z,2.83
2018-08-18T17:09:01.028Z,2.10
2018-08-18T17:11:34.928Z,2.33
2018-08-18T17:14:27.471Z,2.33
2018-08-18T17:16:57.289Z,2.30
2018-08-18T17:19:26.273Z,2.00
2018-08-18T17:21:55.825Z,2.03
2018-08-18T17:24:24.418Z,2.37
2018-08-18T17:26:52.905Z,2.23
2018-08-18T17:29:21.642Z,2.53
2018-08-18T17:31:51.906Z,2.87
2018-08-18T17:34:20.914Z,2.20
2018-08-18T17:36:50.042Z,2.20
2018-08-18T17:39:19.005Z,1.97
2018-08-18T17:41:48.757Z,1.73
2018-08-18T17:44:18.867Z,1.80
2018-08-18T17:46:52.366Z,2.17
2018-08-18T17:49:23.795Z,2.33
2018-08-18T17:52:02.612Z,2.20
2018-08-18T17:54:32.559Z,2.67
2018-08-18T17:57:03.779Z,2.33
2018-08-18T17:59:32.547Z,2.60
2018-08-18T18:02:15.958Z,2.87
2018-08-18T18:04:45.369Z,2.50
2018-08-18T18:07:14.033Z,3.33
2018-08-18T18:09:42.599Z,2.87
2018-08-18T18:12:29.421Z,2.90
2018-08-18T18:14:58.084Z,2.93
2018-08-18T18:17:29.025Z,3.00
2018-08-18T18:20:00.269Z,3.03
2018-08-18T18:22:40.144Z,3.17
2018-08-18T18:25:08.772Z,3.40
2018-08-18T18:27:37.963Z,2.80
2018-08-18T18:30:07.700Z,2.87
2018-08-18T18:32:37.116Z,2.50
2018-08-18T18:35:06.680Z,3.03
2018-08-18T18:37:35.534Z,2.27
2018-08-18T18:40:07.347Z,2.80
2018-08-18T18:43:07.664Z,2.13
2018-08-18T18:45:37.271Z,2.63
2018-08-18T18:48:07.910Z,2.47
2018-08-18T18:50:36.617Z,1.87
2018-08-18T18:53:07.564Z,1.97
2018-08-18T18:55:43.697Z,2.40
2018-08-18T18:58:13.948Z,2.47
2018-08-18T19:00:54.580Z,2.60
2018-08-18T19:03:24.597Z,2.30
2018-08-18T19:05:53.523Z,2.50
2018-08-18T19:08:22.762Z,2.70
2018-08-18T19:10:52.636Z,2.80
2018-08-18T19:13:21.734Z,2.60
2018-08-18T19:15:50.662Z,2.53
2018-08-18T19:18:19.655Z,2.63
2018-08-18T19:20:49.718Z,2.90
2018-08-18T19:23:19.552Z,2.50
2018-08-18T19:25:50.816Z,3.20
2018-08-18T19:28:22.878Z,2.97
2018-08-18T19:30:51.468Z,3.77
2018-08-18T19:33:21.278Z,3.17
2018-08-18T19:35:51.405Z,3.93
2018-08-18T19:38:22.819Z,3.70
2018-08-18T19:40:53.420Z,3.97
2018-08-18T19:43:24.584Z,3.30
2018-08-18T19:45:54.352Z,3.67
2018-08-18T19:48:25.688Z,4.00
2018-08-18T19:51:00.745Z,4.27
2018-08-18T19:53:30.995Z,4.07
2018-08-18T19:56:01.033Z,3.77
2018-08-18T19:58:30.476Z,4.03
2018-08-18T20:00:59.526Z,4.20
2018-08-18T20:03:28.130Z,4.47
2018-08-18T20:05:57.367Z,4.90
2018-08-18T20:08:28.062Z,4.27
2018-08-18T20:10:59.816Z,5.00
2018-08-18T20:13:30.101Z,4.30
2018-08-18T20:16:02.093Z,4.30
2018-08-18T20:18:31.768Z,4.13
2018-08-18T20:21:01.695Z,4.77
2018-08-18T20:23:31.435Z,4.10
2018-08-18T20:26:01.619Z,4.60
2018-08-18T20:28:32.301Z,4.87
2018-08-18T20:31:01.988Z,4.40
2018-08-18T20:33:31.440Z,3.87
2018-08-18T20:36:01.159Z,4.07
2018-08-18T20:38:35.231Z,4.50
2018-08-18T20:41:04.565Z,4.13
2018-08-18T20:43:33.429Z,4.00
2018-08-18T20:46:03.037Z,4.37
2018-08-18T20:48:31.971Z,3.97
2018-08-18T20:51:00.670Z,3.53
2018-08-18T20:53:34.313Z,3.73
2018-08-18T20:56:04.295Z,4.23
2018-08-18T20:58:34.799Z,3.57
2018-08-18T21:01:03.786Z,5.10
2018-08-18T21:06:23.101Z,4.63
2018-08-18T21:08:51.871Z,4.93
2018-08-18T21:11:20.562Z,5.27
2018-08-18T21:13:50.392Z,4.77
2018-08-18T21:16:20.009Z,5.53
2018-08-18T21:18:49.352Z,5.30
2018-08-18T21:21:29.334Z,5.67
2018-08-18T21:23:58.044Z,6.37
2018-08-18T21:26:26.893Z,5.63
2018-08-18T21:28:57.521Z,6.00
2018-08-18T21:31:31.914Z,5.93
2018-08-18T21:34:04.094Z,5.93
2018-08-18T21:36:33.157Z,7.70
2018-08-18T21:39:05.123Z,7.13
2018-08-18T21:41:36.739Z,6.37
2018-08-18T21:44:11.461Z,7.90
2018-08-18T21:46:40.793Z,7.80
2018-08-18T21:49:10.250Z,8.43
2018-08-18T21:51:40.303Z,8.27
2018-08-18T21:54:09.453Z,8.97
2018-08-18T21:56:44.523Z,8.63
2018-08-18T21:59:14.443Z,8.93
2018-08-18T22:01:43.560Z,9.60
2018-08-18T22:04:14.424Z,9.87
2018-08-18T22:06:44.044Z,9.47
2018-08-18T22:09:28.757Z,10.83
2018-08-18T22:11:57.434Z,10.03
2018-08-18T22:14:27.112Z,9.87
2018-08-18T22:16:57.768Z,10.70
2018-08-18T22:19:28.869Z,11.80
2018-08-18T22:21:57.724Z,10.67
2018-08-18T22:24:27.090Z,10.43
2018-08-18T22:26:56.012Z,11.10
2018-08-18T22:29:26.276Z,9.27
2018-08-18T22:31:57.252Z,11.00
2018-08-18T22:34:26.865Z,10.13
2018-08-18T22:37:00.876Z,10.30
2018-08-18T22:39:29.758Z,9.70
2018-08-18T22:41:59.370Z,9.70
2018-08-18T22:44:28.344Z,9.37
2018-08-18T22:46:57.142Z,10.30
2018-08-18T22:49:26.797Z,10.40
2018-08-18T22:51:56.280Z,10.17
2018-08-18T22:54:25.081Z,12.60
2018-08-18T22:56:59.588Z,12.13
2018-08-18T22:59:32.372Z,12.57
2018-08-18T23:02:02.631Z,12.50
2018-08-18T23:04:34.287Z,12.60
2018-08-18T23:07:04.014Z,13.40
2018-08-18T23:09:32.952Z,11.80
2018-08-18T23:12:03.470Z,12.63
2018-08-18T23:14:37.150Z,12.03
2018-08-18T23:17:07.852Z,12.73
2018-08-18T23:19:37.208Z,12.33
2018-08-18T23:22:06.491Z,11.90
2018-08-18T23:24:37.819Z,12.50
2018-08-18T23:27:06.572Z,13.13
2018-08-18T23:29:35.333Z,12.37
2018-08-18T23:32:16.438Z,13.13
2018-08-18T23:34:45.310Z,13.63
2018-08-18T23:37:19.522Z,13.57
2018-08-18T23:39:52.414Z,13.50
2018-08-18T23:42:22.842Z,14.03
2018-08-18T23:44:51.567Z,14.30
2018-08-18T23:47:20.553Z,14.60
2018-08-18T23:49:49.239Z,14.93
2018-08-18T23:52:18.005Z,14.33
2018-08-18T23:54:46.641Z,14.40
2018-08-18T23:57:16.631Z,15.20
2018-08-18T23:59:45.751Z,14.57
